Oncativo, Argentina
Current Conditions -  °F | °C
As of 7:00 PM on Friday 19 Dec 2014 (Local Time) from SACO Reporting Station
Clear Clear  
Wind Chill: 90°   Ceiling: Unl
Heat Index: 90°   Visibility: 6mi
Dew Point: 59°   Wind: 17mph
Humidity: 36%   Direction: 360°N
Pressure: 29.56"   Gusts: NA
Location:  31.92°S, 63.67°W
Report Text: SACO 192200Z 36015KT CAVOK 32/15 Q1001
Loading
Personal Weather Stations






























Interactive Weather Map New forecast layout! Learn more

10-Day Weather Forecast

Advertisements
Track Severe Weather on mobile